sensor_id;sensor_type;location;lat;lon;timestamp;P1;durP1;ratioP1;P2;durP2;ratioP2
64339;SDS011;63709;53.258;-8.814;2023-04-25T00:02:12;10.40;;;3.50;;
64339;SDS011;63709;53.258;-8.814;2023-04-25T00:04:39;9.75;;;3.63;;
64339;SDS011;63709;53.258;-8.814;2023-04-25T00:07:05;7.80;;;3.42;;
64339;SDS011;63709;53.258;-8.814;2023-04-25T00:09:31;7.40;;;3.42;;
64339;SDS011;63709;53.258;-8.814;2023-04-25T00:11:58;10.68;;;3.75;;
64339;SDS011;63709;53.258;-8.814;2023-04-25T00:14:25;7.25;;;3.03;;
64339;SDS011;63709;53.258;-8.814;2023-04-25T00:16:52;9.77;;;3.40;;
64339;SDS011;63709;53.258;-8.814;2023-04-25T00:19:20;8.40;;;4.15;;
64339;SDS011;63709;53.258;-8.814;2023-04-25T00:21:46;9.70;;;3.65;;
64339;SDS011;63709;53.258;-8.814;2023-04-25T00:24:12;9.65;;;3.55;;
64339;SDS011;63709;53.258;-8.814;2023-04-25T00:26:40;9.02;;;3.47;;
64339;SDS011;63709;53.258;-8.814;2023-04-25T00:29:05;9.55;;;3.28;;
64339;SDS011;63709;53.258;-8.814;2023-04-25T00:31:31;10.13;;;4.03;;
64339;SDS011;63709;53.258;-8.814;2023-04-25T00:33:58;8.95;;;4.35;;
64339;SDS011;63709;53.258;-8.814;2023-04-25T00:36:23;11.10;;;4.25;;
64339;SDS011;63709;53.258;-8.814;2023-04-25T00:38:49;11.68;;;4.63;;
64339;SDS011;63709;53.258;-8.814;2023-04-25T00:41:15;11.27;;;3.90;;
64339;SDS011;63709;53.258;-8.814;2023-04-25T00:43:44;12.85;;;4.60;;
64339;SDS011;63709;53.258;-8.814;2023-04-25T00:46:11;12.85;;;5.30;;
64339;SDS011;63709;53.258;-8.814;2023-04-25T00:48:39;9.90;;;4.68;;
64339;SDS011;63709;53.258;-8.814;2023-04-25T00:51:05;12.88;;;4.47;;
64339;SDS011;63709;53.258;-8.814;2023-04-25T00:55:57;14.90;;;4.55;;
64339;SDS011;63709;53.258;-8.814;2023-04-25T01:00:51;20.45;;;6.03;;
64339;SDS011;63709;53.258;-8.814;2023-04-25T01:03:18;15.77;;;6.07;;
64339;SDS011;63709;53.258;-8.814;2023-04-25T01:05:45;15.45;;;6.68;;
64339;SDS011;63709;53.258;-8.814;2023-04-25T01:08:12;11.20;;;6.00;;
64339;SDS011;63709;53.258;-8.814;2023-04-25T01:10:38;10.88;;;5.18;;
64339;SDS011;63709;53.258;-8.814;2023-04-25T01:13:04;8.98;;;3.67;;
64339;SDS011;63709;53.258;-8.814;2023-04-25T01:15:32;10.18;;;4.07;;
64339;SDS011;63709;53.258;-8.814;2023-04-25T01:17:59;9.32;;;4.10;;
64339;SDS011;63709;53.258;-8.814;2023-04-25T01:20:26;8.80;;;4.40;;
64339;SDS011;63709;53.258;-8.814;2023-04-25T01:22:53;12.05;;;5.13;;
64339;SDS011;63709;53.258;-8.814;2023-04-25T01:25:21;13.57;;;5.15;;
64339;SDS011;63709;53.258;-8.814;2023-04-25T01:27:49;14.75;;;6.40;;
64339;SDS011;63709;53.258;-8.814;2023-04-25T01:30:15;13.63;;;5.70;;
64339;SDS011;63709;53.258;-8.814;2023-04-25T01:32:41;11.95;;;5.57;;
64339;SDS011;63709;53.258;-8.814;2023-04-25T01:35:11;14.30;;;7.72;;
64339;SDS011;63709;53.258;-8.814;2023-04-25T01:37:38;19.58;;;9.55;;
64339;SDS011;63709;53.258;-8.814;2023-04-25T01:40:05;15.43;;;6.53;;
64339;SDS011;63709;53.258;-8.814;2023-04-25T01:42:32;12.88;;;5.22;;
64339;SDS011;63709;53.258;-8.814;2023-04-25T01:45:01;8.77;;;3.60;;
64339;SDS011;63709;53.258;-8.814;2023-04-25T01:47:26;10.88;;;4.30;;
64339;SDS011;63709;53.258;-8.814;2023-04-25T01:49:52;11.20;;;4.10;;
64339;SDS011;63709;53.258;-8.814;2023-04-25T01:52:18;7.55;;;3.90;;
64339;SDS011;63709;53.258;-8.814;2023-04-25T01:54:51;9.82;;;3.53;;
64339;SDS011;63709;53.258;-8.814;2023-04-25T01:57:16;8.10;;;3.65;;
64339;SDS011;63709;53.258;-8.814;2023-04-25T01:59:43;12.15;;;4.53;;
64339;SDS011;63709;53.258;-8.814;2023-04-25T02:02:09;8.45;;;3.47;;
64339;SDS011;63709;53.258;-8.814;2023-04-25T02:04:35;10.23;;;3.50;;
64339;SDS011;63709;53.258;-8.814;2023-04-25T02:07:00;10.18;;;3.45;;
64339;SDS011;63709;53.258;-8.814;2023-04-25T02:09:26;9.75;;;3.75;;
64339;SDS011;63709;53.258;-8.814;2023-04-25T02:11:52;8.85;;;3.75;;
64339;SDS011;63709;53.258;-8.814;2023-04-25T02:14:19;9.15;;;3.83;;
64339;SDS011;63709;53.258;-8.814;2023-04-25T02:16:44;8.13;;;3.35;;
64339;SDS011;63709;53.258;-8.814;2023-04-25T02:19:12;9.95;;;3.50;;
64339;SDS011;63709;53.258;-8.814;2023-04-25T02:21:38;9.90;;;4.20;;
64339;SDS011;63709;53.258;-8.814;2023-04-25T02:24:04;10.00;;;3.90;;
64339;SDS011;63709;53.258;-8.814;2023-04-25T02:28:58;8.57;;;3.50;;
64339;SDS011;63709;53.258;-8.814;2023-04-25T02:31:24;8.48;;;3.45;;
64339;SDS011;63709;53.258;-8.814;2023-04-25T02:33:49;10.77;;;4.22;;
64339;SDS011;63709;53.258;-8.814;2023-04-25T02:36:15;7.73;;;4.20;;
64339;SDS011;63709;53.258;-8.814;2023-04-25T02:38:40;10.02;;;3.97;;
64339;SDS011;63709;53.258;-8.814;2023-04-25T02:41:06;8.32;;;3.78;;
64339;SDS011;63709;53.258;-8.814;2023-04-25T02:43:32;11.82;;;4.03;;
64339;SDS011;63709;53.258;-8.814;2023-04-25T02:45:57;10.95;;;3.88;;
64339;SDS011;63709;53.258;-8.814;2023-04-25T02:48:23;9.35;;;4.10;;
64339;SDS011;63709;53.258;-8.814;2023-04-25T02:50:48;8.32;;;4.53;;
64339;SDS011;63709;53.258;-8.814;2023-04-25T02:53:17;6.00;;;3.25;;
64339;SDS011;63709;53.258;-8.814;2023-04-25T02:55:42;12.18;;;4.00;;
64339;SDS011;63709;53.258;-8.814;2023-04-25T02:58:08;10.43;;;4.13;;
64339;SDS011;63709;53.258;-8.814;2023-04-25T03:00:33;8.80;;;4.13;;
64339;SDS011;63709;53.258;-8.814;2023-04-25T03:03:00;8.50;;;3.88;;
64339;SDS011;63709;53.258;-8.814;2023-04-25T03:05:26;9.90;;;4.35;;
64339;SDS011;63709;53.258;-8.814;2023-04-25T03:07:52;10.25;;;4.30;;
64339;SDS011;63709;53.258;-8.814;2023-04-25T03:10:18;9.95;;;4.38;;
64339;SDS011;63709;53.258;-8.814;2023-04-25T03:12:45;9.68;;;3.80;;
64339;SDS011;63709;53.258;-8.814;2023-04-25T03:15:11;10.68;;;3.75;;
64339;SDS011;63709;53.258;-8.814;2023-04-25T03:17:37;11.80;;;4.40;;
64339;SDS011;63709;53.258;-8.814;2023-04-25T03:20:03;10.93;;;4.28;;
64339;SDS011;63709;53.258;-8.814;2023-04-25T03:22:31;7.18;;;3.85;;
64339;SDS011;63709;53.258;-8.814;2023-04-25T03:24:57;12.07;;;4.13;;
64339;SDS011;63709;53.258;-8.814;2023-04-25T03:27:23;11.23;;;4.18;;
64339;SDS011;63709;53.258;-8.814;2023-04-25T03:29:49;9.32;;;3.75;;
64339;SDS011;63709;53.258;-8.814;2023-04-25T03:32:14;11.32;;;3.97;;
64339;SDS011;63709;53.258;-8.814;2023-04-25T03:34:41;9.02;;;3.78;;
64339;SDS011;63709;53.258;-8.814;2023-04-25T03:37:08;10.35;;;4.35;;
64339;SDS011;63709;53.258;-8.814;2023-04-25T03:39:33;13.30;;;4.65;;
64339;SDS011;63709;53.258;-8.814;2023-04-25T03:41:59;9.50;;;4.20;;
64339;SDS011;63709;53.258;-8.814;2023-04-25T03:44:24;10.43;;;4.63;;
64339;SDS011;63709;53.258;-8.814;2023-04-25T03:46:50;7.22;;;3.75;;
64339;SDS011;63709;53.258;-8.814;2023-04-25T03:49:16;8.90;;;4.45;;
64339;SDS011;63709;53.258;-8.814;2023-04-25T03:51:41;9.48;;;3.83;;
64339;SDS011;63709;53.258;-8.814;2023-04-25T03:54:08;10.55;;;3.97;;
64339;SDS011;63709;53.258;-8.814;2023-04-25T03:56:35;10.02;;;3.88;;
64339;SDS011;63709;53.258;-8.814;2023-04-25T03:59:00;7.53;;;3.92;;
64339;SDS011;63709;53.258;-8.814;2023-04-25T04:01:25;13.05;;;4.38;;
64339;SDS011;63709;53.258;-8.814;2023-04-25T04:03:51;19.95;;;6.80;;
64339;SDS011;63709;53.258;-8.814;2023-04-25T04:06:18;24.08;;;8.07;;
64339;SDS011;63709;53.258;-8.814;2023-04-25T04:08:46;30.40;;;10.38;;
64339;SDS011;63709;53.258;-8.814;2023-04-25T04:11:12;43.88;;;14.70;;
64339;SDS011;63709;53.258;-8.814;2023-04-25T04:13:38;48.25;;;16.55;;
64339;SDS011;63709;53.258;-8.814;2023-04-25T04:16:04;42.28;;;15.77;;
64339;SDS011;63709;53.258;-8.814;2023-04-25T04:18:30;26.67;;;9.98;;
64339;SDS011;63709;53.258;-8.814;2023-04-25T04:20:55;20.70;;;7.18;;
64339;SDS011;63709;53.258;-8.814;2023-04-25T04:23:23;13.90;;;5.65;;
64339;SDS011;63709;53.258;-8.814;2023-04-25T04:25:49;18.20;;;4.68;;
64339;SDS011;63709;53.258;-8.814;2023-04-25T04:28:15;10.35;;;4.72;;
64339;SDS011;63709;53.258;-8.814;2023-04-25T04:30:41;12.98;;;4.43;;
64339;SDS011;63709;53.258;-8.814;2023-04-25T04:33:08;9.70;;;4.68;;
64339;SDS011;63709;53.258;-8.814;2023-04-25T04:35:34;10.50;;;5.07;;
64339;SDS011;63709;53.258;-8.814;2023-04-25T04:37:59;14.63;;;5.88;;
64339;SDS011;63709;53.258;-8.814;2023-04-25T04:40:26;15.75;;;6.68;;
64339;SDS011;63709;53.258;-8.814;2023-04-25T04:42:52;17.42;;;7.43;;
64339;SDS011;63709;53.258;-8.814;2023-04-25T04:45:19;23.83;;;8.85;;
64339;SDS011;63709;53.258;-8.814;2023-04-25T04:47:45;19.00;;;7.65;;
64339;SDS011;63709;53.258;-8.814;2023-04-25T04:50:11;16.90;;;7.15;;
64339;SDS011;63709;53.258;-8.814;2023-04-25T04:52:38;21.15;;;7.00;;
64339;SDS011;63709;53.258;-8.814;2023-04-25T04:55:04;18.30;;;6.40;;
64339;SDS011;63709;53.258;-8.814;2023-04-25T04:57:31;20.20;;;5.97;;
64339;SDS011;63709;53.258;-8.814;2023-04-25T04:59:58;16.50;;;5.32;;
64339;SDS011;63709;53.258;-8.814;2023-04-25T05:04:55;13.02;;;4.55;;
64339;SDS011;63709;53.258;-8.814;2023-04-25T05:07:21;14.77;;;5.80;;
64339;SDS011;63709;53.258;-8.814;2023-04-25T05:09:46;10.82;;;4.80;;
64339;SDS011;63709;53.258;-8.814;2023-04-25T05:12:18;10.85;;;4.57;;
64339;SDS011;63709;53.258;-8.814;2023-04-25T05:14:45;12.73;;;5.30;;
64339;SDS011;63709;53.258;-8.814;2023-04-25T05:19:40;15.10;;;4.93;;
64339;SDS011;63709;53.258;-8.814;2023-04-25T05:22:06;10.98;;;4.85;;
64339;SDS011;63709;53.258;-8.814;2023-04-25T05:24:32;11.65;;;5.30;;
64339;SDS011;63709;53.258;-8.814;2023-04-25T05:26:58;11.57;;;4.72;;
64339;SDS011;63709;53.258;-8.814;2023-04-25T05:29:24;12.27;;;5.30;;
64339;SDS011;63709;53.258;-8.814;2023-04-25T05:31:49;10.43;;;5.40;;
64339;SDS011;63709;53.258;-8.814;2023-04-25T05:34:15;11.80;;;5.25;;
64339;SDS011;63709;53.258;-8.814;2023-04-25T05:39:07;11.73;;;4.50;;
64339;SDS011;63709;53.258;-8.814;2023-04-25T05:41:38;16.80;;;4.72;;
64339;SDS011;63709;53.258;-8.814;2023-04-25T05:44:03;11.20;;;4.82;;
64339;SDS011;63709;53.258;-8.814;2023-04-25T05:46:30;8.98;;;4.90;;
64339;SDS011;63709;53.258;-8.814;2023-04-25T05:48:56;11.35;;;4.75;;
64339;SDS011;63709;53.258;-8.814;2023-04-25T05:51:21;10.20;;;4.22;;
64339;SDS011;63709;53.258;-8.814;2023-04-25T05:53:47;12.05;;;4.90;;
64339;SDS011;63709;53.258;-8.814;2023-04-25T05:56:14;10.10;;;4.90;;
64339;SDS011;63709;53.258;-8.814;2023-04-25T05:58:41;14.52;;;5.50;;
64339;SDS011;63709;53.258;-8.814;2023-04-25T06:01:07;16.17;;;5.18;;
64339;SDS011;63709;53.258;-8.814;2023-04-25T06:03:33;13.35;;;5.30;;
64339;SDS011;63709;53.258;-8.814;2023-04-25T06:05:58;13.30;;;6.75;;
64339;SDS011;63709;53.258;-8.814;2023-04-25T06:08:28;12.05;;;4.80;;
64339;SDS011;63709;53.258;-8.814;2023-04-25T06:10:54;13.50;;;5.65;;
64339;SDS011;63709;53.258;-8.814;2023-04-25T06:13:22;13.10;;;5.10;;
64339;SDS011;63709;53.258;-8.814;2023-04-25T06:15:49;10.32;;;4.45;;
64339;SDS011;63709;53.258;-8.814;2023-04-25T06:18:14;11.18;;;4.05;;
64339;SDS011;63709;53.258;-8.814;2023-04-25T06:20:40;11.55;;;5.13;;
64339;SDS011;63709;53.258;-8.814;2023-04-25T06:23:06;18.63;;;6.80;;
64339;SDS011;63709;53.258;-8.814;2023-04-25T06:25:32;14.02;;;5.53;;
64339;SDS011;63709;53.258;-8.814;2023-04-25T06:27:57;16.58;;;5.65;;
64339;SDS011;63709;53.258;-8.814;2023-04-25T06:30:24;17.00;;;5.17;;
64339;SDS011;63709;53.258;-8.814;2023-04-25T06:32:53;18.25;;;5.18;;
64339;SDS011;63709;53.258;-8.814;2023-04-25T06:35:19;15.13;;;5.20;;
64339;SDS011;63709;53.258;-8.814;2023-04-25T06:37:45;18.38;;;5.50;;
64339;SDS011;63709;53.258;-8.814;2023-04-25T06:40:15;13.60;;;4.70;;
64339;SDS011;63709;53.258;-8.814;2023-04-25T06:42:44;12.80;;;4.30;;
64339;SDS011;63709;53.258;-8.814;2023-04-25T06:45:10;10.13;;;3.60;;
64339;SDS011;63709;53.258;-8.814;2023-04-25T06:47:35;9.82;;;4.03;;
64339;SDS011;63709;53.258;-8.814;2023-04-25T06:50:01;10.77;;;3.92;;
64339;SDS011;63709;53.258;-8.814;2023-04-25T06:52:28;19.27;;;4.93;;
64339;SDS011;63709;53.258;-8.814;2023-04-25T06:54:54;9.07;;;4.20;;
64339;SDS011;63709;53.258;-8.814;2023-04-25T06:57:21;10.68;;;4.13;;
64339;SDS011;63709;53.258;-8.814;2023-04-25T06:59:46;15.18;;;4.40;;
64339;SDS011;63709;53.258;-8.814;2023-04-25T07:02:12;10.40;;;4.05;;
64339;SDS011;63709;53.258;-8.814;2023-04-25T07:04:39;9.43;;;3.73;;
64339;SDS011;63709;53.258;-8.814;2023-04-25T07:07:04;9.85;;;3.58;;
64339;SDS011;63709;53.258;-8.814;2023-04-25T07:09:30;7.40;;;3.35;;
64339;SDS011;63709;53.258;-8.814;2023-04-25T07:12:00;9.52;;;3.75;;
64339;SDS011;63709;53.258;-8.814;2023-04-25T07:14:28;10.32;;;3.85;;
64339;SDS011;63709;53.258;-8.814;2023-04-25T07:16:54;15.75;;;3.92;;
64339;SDS011;63709;53.258;-8.814;2023-04-25T07:19:22;8.90;;;3.33;;
64339;SDS011;63709;53.258;-8.814;2023-04-25T07:21:52;9.68;;;3.55;;
64339;SDS011;63709;53.258;-8.814;2023-04-25T07:24:18;8.30;;;3.55;;
64339;SDS011;63709;53.258;-8.814;2023-04-25T07:26:45;17.10;;;4.68;;
64339;SDS011;63709;53.258;-8.814;2023-04-25T07:29:11;10.20;;;3.80;;
64339;SDS011;63709;53.258;-8.814;2023-04-25T07:31:36;7.88;;;3.33;;
64339;SDS011;63709;53.258;-8.814;2023-04-25T07:36:28;9.82;;;3.95;;
64339;SDS011;63709;53.258;-8.814;2023-04-25T07:38:55;19.58;;;4.93;;
64339;SDS011;63709;53.258;-8.814;2023-04-25T07:41:21;11.65;;;5.20;;
64339;SDS011;63709;53.258;-8.814;2023-04-25T07:43:48;13.55;;;4.22;;
64339;SDS011;63709;53.258;-8.814;2023-04-25T07:46:14;12.85;;;4.53;;
64339;SDS011;63709;53.258;-8.814;2023-04-25T07:48:40;12.68;;;4.50;;
64339;SDS011;63709;53.258;-8.814;2023-04-25T07:51:05;14.88;;;4.78;;
64339;SDS011;63709;53.258;-8.814;2023-04-25T07:53:32;16.80;;;4.10;;
64339;SDS011;63709;53.258;-8.814;2023-04-25T07:56:00;12.27;;;5.07;;
64339;SDS011;63709;53.258;-8.814;2023-04-25T07:58:27;12.75;;;3.33;;
64339;SDS011;63709;53.258;-8.814;2023-04-25T08:00:53;12.10;;;4.60;;
64339;SDS011;63709;53.258;-8.814;2023-04-25T08:03:19;10.70;;;3.53;;
64339;SDS011;63709;53.258;-8.814;2023-04-25T08:05:46;13.63;;;3.53;;
64339;SDS011;63709;53.258;-8.814;2023-04-25T08:08:12;12.65;;;4.35;;
64339;SDS011;63709;53.258;-8.814;2023-04-25T08:10:38;11.20;;;4.43;;
64339;SDS011;63709;53.258;-8.814;2023-04-25T08:13:04;12.00;;;4.95;;
64339;SDS011;63709;53.258;-8.814;2023-04-25T08:15:30;14.63;;;4.35;;
64339;SDS011;63709;53.258;-8.814;2023-04-25T08:17:56;9.27;;;4.40;;
64339;SDS011;63709;53.258;-8.814;2023-04-25T08:20:26;14.02;;;5.30;;
64339;SDS011;63709;53.258;-8.814;2023-04-25T08:22:52;12.18;;;4.57;;
64339;SDS011;63709;53.258;-8.814;2023-04-25T08:25:19;9.50;;;3.95;;
64339;SDS011;63709;53.258;-8.814;2023-04-25T08:27:45;12.70;;;3.63;;
64339;SDS011;63709;53.258;-8.814;2023-04-25T08:30:11;17.48;;;5.03;;
64339;SDS011;63709;53.258;-8.814;2023-04-25T08:35:06;14.38;;;3.38;;
64339;SDS011;63709;53.258;-8.814;2023-04-25T08:37:33;15.80;;;4.30;;
64339;SDS011;63709;53.258;-8.814;2023-04-25T08:39:58;10.65;;;3.80;;
64339;SDS011;63709;53.258;-8.814;2023-04-25T08:42:24;12.57;;;4.55;;
64339;SDS011;63709;53.258;-8.814;2023-04-25T08:44:53;11.00;;;4.53;;
64339;SDS011;63709;53.258;-8.814;2023-04-25T08:47:19;11.95;;;5.40;;
64339;SDS011;63709;53.258;-8.814;2023-04-25T08:49:49;13.57;;;4.65;;
64339;SDS011;63709;53.258;-8.814;2023-04-25T08:52:21;12.95;;;4.10;;
64339;SDS011;63709;53.258;-8.814;2023-04-25T08:54:48;8.15;;;3.58;;
64339;SDS011;63709;53.258;-8.814;2023-04-25T08:57:16;15.75;;;4.03;;
64339;SDS011;63709;53.258;-8.814;2023-04-25T08:59:44;16.20;;;4.57;;
64339;SDS011;63709;53.258;-8.814;2023-04-25T09:02:11;10.40;;;4.43;;
64339;SDS011;63709;53.258;-8.814;2023-04-25T09:04:42;8.70;;;4.10;;
64339;SDS011;63709;53.258;-8.814;2023-04-25T09:07:09;18.52;;;6.85;;
64339;SDS011;63709;53.258;-8.814;2023-04-25T09:09:38;9.00;;;4.95;;
64339;SDS011;63709;53.258;-8.814;2023-04-25T09:12:05;12.27;;;4.38;;
64339;SDS011;63709;53.258;-8.814;2023-04-25T09:14:31;11.50;;;3.72;;
64339;SDS011;63709;53.258;-8.814;2023-04-25T09:16:59;11.32;;;4.18;;
64339;SDS011;63709;53.258;-8.814;2023-04-25T09:21:59;9.88;;;4.18;;
64339;SDS011;63709;53.258;-8.814;2023-04-25T09:24:44;11.50;;;3.53;;
64339;SDS011;63709;53.258;-8.814;2023-04-25T09:27:17;9.45;;;3.33;;
64339;SDS011;63709;53.258;-8.814;2023-04-25T09:29:45;7.80;;;2.90;;
64339;SDS011;63709;53.258;-8.814;2023-04-25T09:32:14;7.20;;;3.13;;
64339;SDS011;63709;53.258;-8.814;2023-04-25T09:34:47;12.48;;;3.38;;
64339;SDS011;63709;53.258;-8.814;2023-04-25T09:37:17;11.40;;;3.40;;
64339;SDS011;63709;53.258;-8.814;2023-04-25T09:39:48;10.77;;;3.53;;
64339;SDS011;63709;53.258;-8.814;2023-04-25T09:42:16;10.52;;;3.60;;
64339;SDS011;63709;53.258;-8.814;2023-04-25T09:44:43;7.43;;;3.28;;
64339;SDS011;63709;53.258;-8.814;2023-04-25T09:47:12;8.85;;;3.20;;
64339;SDS011;63709;53.258;-8.814;2023-04-25T09:49:40;7.43;;;3.15;;
64339;SDS011;63709;53.258;-8.814;2023-04-25T09:52:19;9.85;;;3.10;;
64339;SDS011;63709;53.258;-8.814;2023-04-25T09:54:46;8.68;;;2.80;;
64339;SDS011;63709;53.258;-8.814;2023-04-25T09:59:45;9.43;;;3.15;;
64339;SDS011;63709;53.258;-8.814;2023-04-25T10:02:14;11.40;;;3.33;;
64339;SDS011;63709;53.258;-8.814;2023-04-25T10:04:41;12.57;;;3.60;;
64339;SDS011;63709;53.258;-8.814;2023-04-25T10:07:09;10.32;;;3.53;;
64339;SDS011;63709;53.258;-8.814;2023-04-25T10:09:37;9.13;;;3.70;;
64339;SDS011;63709;53.258;-8.814;2023-04-25T10:12:05;9.15;;;2.70;;
64339;SDS011;63709;53.258;-8.814;2023-04-25T10:14:34;12.23;;;3.50;;
64339;SDS011;63709;53.258;-8.814;2023-04-25T10:17:00;11.40;;;2.67;;
64339;SDS011;63709;53.258;-8.814;2023-04-25T10:19:27;7.53;;;2.58;;
64339;SDS011;63709;53.258;-8.814;2023-04-25T10:22:03;15.73;;;3.17;;
64339;SDS011;63709;53.258;-8.814;2023-04-25T10:24:32;12.00;;;3.00;;
64339;SDS011;63709;53.258;-8.814;2023-04-25T10:26:58;7.20;;;2.75;;
64339;SDS011;63709;53.258;-8.814;2023-04-25T10:29:25;7.78;;;2.95;;
64339;SDS011;63709;53.258;-8.814;2023-04-25T10:31:51;8.35;;;3.20;;
64339;SDS011;63709;53.258;-8.814;2023-04-25T10:34:18;10.35;;;2.83;;
64339;SDS011;63709;53.258;-8.814;2023-04-25T10:36:54;10.40;;;2.90;;
64339;SDS011;63709;53.258;-8.814;2023-04-25T10:39:23;5.57;;;2.90;;
64339;SDS011;63709;53.258;-8.814;2023-04-25T10:41:55;8.65;;;2.72;;
64339;SDS011;63709;53.258;-8.814;2023-04-25T10:44:22;9.05;;;2.53;;
64339;SDS011;63709;53.258;-8.814;2023-04-25T10:46:48;7.88;;;2.75;;
64339;SDS011;63709;53.258;-8.814;2023-04-25T10:52:14;7.63;;;2.60;;
64339;SDS011;63709;53.258;-8.814;2023-04-25T10:54:48;7.03;;;2.50;;
64339;SDS011;63709;53.258;-8.814;2023-04-25T10:57:31;8.05;;;2.03;;
64339;SDS011;63709;53.258;-8.814;2023-04-25T11:00:07;5.65;;;2.33;;
64339;SDS011;63709;53.258;-8.814;2023-04-25T11:02:41;5.80;;;2.60;;
64339;SDS011;63709;53.258;-8.814;2023-04-25T11:08:00;3.90;;;2.30;;
64339;SDS011;63709;53.258;-8.814;2023-04-25T11:10:30;5.55;;;2.10;;
64339;SDS011;63709;53.258;-8.814;2023-04-25T11:12:57;6.18;;;1.85;;
64339;SDS011;63709;53.258;-8.814;2023-04-25T11:15:24;8.50;;;2.00;;
64339;SDS011;63709;53.258;-8.814;2023-04-25T11:17:56;5.47;;;1.95;;
64339;SDS011;63709;53.258;-8.814;2023-04-25T11:20:22;5.07;;;2.13;;
64339;SDS011;63709;53.258;-8.814;2023-04-25T11:22:51;7.78;;;2.00;;
64339;SDS011;63709;53.258;-8.814;2023-04-25T11:27:57;4.80;;;1.88;;
64339;SDS011;63709;53.258;-8.814;2023-04-25T11:30:24;5.95;;;2.00;;
64339;SDS011;63709;53.258;-8.814;2023-04-25T11:32:51;4.05;;;1.80;;
64339;SDS011;63709;53.258;-8.814;2023-04-25T11:37:46;4.18;;;1.95;;
64339;SDS011;63709;53.258;-8.814;2023-04-25T11:42:38;5.28;;;2.00;;
64339;SDS011;63709;53.258;-8.814;2023-04-25T11:45:04;7.80;;;2.35;;
64339;SDS011;63709;53.258;-8.814;2023-04-25T11:47:31;5.05;;;2.00;;
64339;SDS011;63709;53.258;-8.814;2023-04-25T11:50:01;4.38;;;1.92;;
64339;SDS011;63709;53.258;-8.814;2023-04-25T11:52:42;6.30;;;1.90;;
64339;SDS011;63709;53.258;-8.814;2023-04-25T11:57:39;9.65;;;2.10;;
64339;SDS011;63709;53.258;-8.814;2023-04-25T12:00:18;9.27;;;3.63;;
64339;SDS011;63709;53.258;-8.814;2023-04-25T12:02:57;6.35;;;2.22;;
64339;SDS011;63709;53.258;-8.814;2023-04-25T12:05:37;4.30;;;1.95;;
64339;SDS011;63709;53.258;-8.814;2023-04-25T12:08:16;3.53;;;1.77;;
64339;SDS011;63709;53.258;-8.814;2023-04-25T12:10:42;3.97;;;1.85;;
64339;SDS011;63709;53.258;-8.814;2023-04-25T12:15:49;5.88;;;2.15;;
64339;SDS011;63709;53.258;-8.814;2023-04-25T12:18:18;5.53;;;2.30;;
64339;SDS011;63709;53.258;-8.814;2023-04-25T12:20:48;6.32;;;2.17;;
64339;SDS011;63709;53.258;-8.814;2023-04-25T12:23:15;5.68;;;2.10;;
64339;SDS011;63709;53.258;-8.814;2023-04-25T12:25:42;5.80;;;1.92;;
64339;SDS011;63709;53.258;-8.814;2023-04-25T12:28:18;6.85;;;1.88;;
64339;SDS011;63709;53.258;-8.814;2023-04-25T12:33:32;4.65;;;1.85;;
64339;SDS011;63709;53.258;-8.814;2023-04-25T12:36:02;4.03;;;1.83;;
64339;SDS011;63709;53.258;-8.814;2023-04-25T12:38:35;4.45;;;1.80;;
64339;SDS011;63709;53.258;-8.814;2023-04-25T12:41:06;5.72;;;1.95;;
64339;SDS011;63709;53.258;-8.814;2023-04-25T12:43:31;4.20;;;2.05;;
64339;SDS011;63709;53.258;-8.814;2023-04-25T12:45:57;6.20;;;2.55;;
64339;SDS011;63709;53.258;-8.814;2023-04-25T12:48:25;5.78;;;1.83;;
64339;SDS011;63709;53.258;-8.814;2023-04-25T12:51:21;3.35;;;1.52;;
64339;SDS011;63709;53.258;-8.814;2023-04-25T12:56:42;8.77;;;2.30;;
64339;SDS011;63709;53.258;-8.814;2023-04-25T12:59:16;5.03;;;2.08;;
64339;SDS011;63709;53.258;-8.814;2023-04-25T13:01:56;3.78;;;1.70;;
64339;SDS011;63709;53.258;-8.814;2023-04-25T13:04:39;3.38;;;1.83;;
64339;SDS011;63709;53.258;-8.814;2023-04-25T13:07:14;5.72;;;2.00;;
64339;SDS011;63709;53.258;-8.814;2023-04-25T13:09:44;2.72;;;1.77;;
64339;SDS011;63709;53.258;-8.814;2023-04-25T13:12:20;3.38;;;1.73;;
64339;SDS011;63709;53.258;-8.814;2023-04-25T13:14:46;4.10;;;2.00;;
64339;SDS011;63709;53.258;-8.814;2023-04-25T13:17:11;5.60;;;2.10;;
64339;SDS011;63709;53.258;-8.814;2023-04-25T13:19:37;7.82;;;1.95;;
64339;SDS011;63709;53.258;-8.814;2023-04-25T13:22:06;5.05;;;1.88;;
64339;SDS011;63709;53.258;-8.814;2023-04-25T13:24:32;4.45;;;2.10;;
64339;SDS011;63709;53.258;-8.814;2023-04-25T13:29:49;5.35;;;2.00;;
64339;SDS011;63709;53.258;-8.814;2023-04-25T13:32:16;7.50;;;1.88;;
64339;SDS011;63709;53.258;-8.814;2023-04-25T13:34:41;6.13;;;2.05;;
64339;SDS011;63709;53.258;-8.814;2023-04-25T13:37:15;5.68;;;2.00;;
64339;SDS011;63709;53.258;-8.814;2023-04-25T13:40:04;5.07;;;1.85;;
64339;SDS011;63709;53.258;-8.814;2023-04-25T13:42:42;8.30;;;2.88;;
64339;SDS011;63709;53.258;-8.814;2023-04-25T13:45:14;4.45;;;2.05;;
64339;SDS011;63709;53.258;-8.814;2023-04-25T13:47:54;3.53;;;1.70;;
64339;SDS011;63709;53.258;-8.814;2023-04-25T13:50:20;3.17;;;1.85;;
64339;SDS011;63709;53.258;-8.814;2023-04-25T13:52:49;5.40;;;2.40;;
64339;SDS011;63709;53.258;-8.814;2023-04-25T13:55:18;5.00;;;1.98;;
64339;SDS011;63709;53.258;-8.814;2023-04-25T13:57:54;4.53;;;1.98;;
64339;SDS011;63709;53.258;-8.814;2023-04-25T14:00:33;10.73;;;2.80;;
64339;SDS011;63709;53.258;-8.814;2023-04-25T14:05:53;8.13;;;2.20;;
64339;SDS011;63709;53.258;-8.814;2023-04-25T14:11:10;4.50;;;1.90;;
64339;SDS011;63709;53.258;-8.814;2023-04-25T14:13:38;5.97;;;2.50;;
64339;SDS011;63709;53.258;-8.814;2023-04-25T14:16:05;7.97;;;2.10;;
64339;SDS011;63709;53.258;-8.814;2023-04-25T14:18:31;3.90;;;2.10;;
64339;SDS011;63709;53.258;-8.814;2023-04-25T14:20:58;4.88;;;2.30;;
64339;SDS011;63709;53.258;-8.814;2023-04-25T14:23:36;5.90;;;1.90;;
64339;SDS011;63709;53.258;-8.814;2023-04-25T14:26:02;5.82;;;1.90;;
64339;SDS011;63709;53.258;-8.814;2023-04-25T14:28:27;6.18;;;2.00;;
64339;SDS011;63709;53.258;-8.814;2023-04-25T14:30:53;6.32;;;2.00;;
64339;SDS011;63709;53.258;-8.814;2023-04-25T14:33:22;5.88;;;2.10;;
64339;SDS011;63709;53.258;-8.814;2023-04-25T14:35:48;8.95;;;2.55;;
64339;SDS011;63709;53.258;-8.814;2023-04-25T14:38:23;5.13;;;2.78;;
64339;SDS011;63709;53.258;-8.814;2023-04-25T14:43:53;6.10;;;2.42;;
64339;SDS011;63709;53.258;-8.814;2023-04-25T14:46:28;5.70;;;2.20;;
64339;SDS011;63709;53.258;-8.814;2023-04-25T14:49:01;10.25;;;2.60;;
64339;SDS011;63709;53.258;-8.814;2023-04-25T14:51:32;5.68;;;2.67;;
64339;SDS011;63709;53.258;-8.814;2023-04-25T14:53:57;6.93;;;2.20;;
64339;SDS011;63709;53.258;-8.814;2023-04-25T14:56:23;9.32;;;2.38;;
64339;SDS011;63709;53.258;-8.814;2023-04-25T14:58:49;10.13;;;3.00;;
64339;SDS011;63709;53.258;-8.814;2023-04-25T15:04:20;5.15;;;2.10;;
64339;SDS011;63709;53.258;-8.814;2023-04-25T15:06:46;4.85;;;2.38;;
64339;SDS011;63709;53.258;-8.814;2023-04-25T15:09:12;7.88;;;2.50;;
64339;SDS011;63709;53.258;-8.814;2023-04-25T15:11:37;7.22;;;2.55;;
64339;SDS011;63709;53.258;-8.814;2023-04-25T15:14:04;7.55;;;2.40;;
64339;SDS011;63709;53.258;-8.814;2023-04-25T15:16:32;10.98;;;2.35;;
64339;SDS011;63709;53.258;-8.814;2023-04-25T15:19:01;4.45;;;2.50;;
64339;SDS011;63709;53.258;-8.814;2023-04-25T15:21:40;9.93;;;2.65;;
64339;SDS011;63709;53.258;-8.814;2023-04-25T15:24:05;5.70;;;2.60;;
64339;SDS011;63709;53.258;-8.814;2023-04-25T15:26:31;4.95;;;2.60;;
64339;SDS011;63709;53.258;-8.814;2023-04-25T15:28:57;13.05;;;3.35;;
64339;SDS011;63709;53.258;-8.814;2023-04-25T15:31:22;9.18;;;2.95;;
64339;SDS011;63709;53.258;-8.814;2023-04-25T15:33:48;7.97;;;3.10;;
64339;SDS011;63709;53.258;-8.814;2023-04-25T15:36:14;8.20;;;3.05;;